Time;durP1;ratioP1;P1;durP2;ratioP2;P2;SDS_P1;SDS_P2;PMS_P1;PMS_P2;Temp;Humidity;BMP_temperature;BMP_pressure;BME280_temperature;BME280_humidity;BME280_pressure;Samples;Min_cycle;Max_cycle;Signal;HPM_P1;HPM_P2
2024/04/08 00:01:44;;;;;;;1999.90;999.90;;;14.50;63.30;;;;;;5024067;28;20029;-73
2024/04/08 00:04:10;;;;;;;1999.90;999.90;;;14.60;63.10;;;;;;5023405;28;20029;-70
2024/04/08 00:06:36;;;;;;;1999.90;999.90;;;14.50;63.30;;;;;;5027444;28;20755;-72
2024/04/08 00:09:03;;;;;;;1999.90;999.90;;;14.50;63.60;;;;;;5023428;28;20033;-72
2024/04/08 00:11:29;;;;;;;;;;;14.50;63.80;;;;;;5023697;28;20550;-71
2024/04/08 00:13:54;;;;;;;1999.90;999.90;;;14.40;64.00;;;;;;5025311;28;19925;-70
2024/04/08 00:16:20;;;;;;;1999.90;999.90;;;14.30;64.30;;;;;;5023975;28;20033;-70
2024/04/08 00:18:46;;;;;;;1999.90;999.90;;;14.30;64.60;;;;;;5026711;28;20100;-71
2024/04/08 00:21:11;;;;;;;1999.90;999.90;;;14.20;64.90;;;;;;5020871;28;20032;-72
2024/04/08 00:23:37;;;;;;;1999.90;999.90;;;14.20;65.10;;;;;;5022801;28;20507;-72
2024/04/08 00:26:06;;;;;;;1999.90;999.90;;;14.10;65.30;;;;;;5023034;28;20024;-70
2024/04/08 00:28:33;;;;;;;1999.90;999.90;;;14.10;65.70;;;;;;5021522;28;20029;-72
2024/04/08 00:31:06;;;;;;;1999.90;999.90;;;14.00;65.80;;;;;;5022222;28;20033;-72
2024/04/08 00:33:35;;;;;;;1999.90;999.90;;;14.00;66.00;;;;;;5021381;28;20026;-70
2024/04/08 00:36:02;;;;;;;1999.90;999.90;;;14.00;66.20;;;;;;5024577;28;20075;-72
2024/04/08 00:38:28;;;;;;;1999.90;999.90;;;14.00;66.50;;;;;;5022723;28;20029;-71
2024/04/08 00:40:54;;;;;;;1999.90;999.90;;;13.90;66.70;;;;;;5023805;28;20036;-72
2024/04/08 00:43:20;;;;;;;1999.90;999.90;;;13.90;66.90;;;;;;5023509;28;20108;-72
2024/04/08 00:45:46;;;;;;;1999.90;999.90;;;13.90;67.00;;;;;;5022591;28;20102;-72
2024/04/08 00:48:14;;;;;;;1999.90;999.90;;;13.80;67.10;;;;;;5022402;28;20150;-72
2024/04/08 00:50:44;;;;;;;1999.90;999.90;;;13.80;68.00;;;;;;5019106;28;20033;-71
2024/04/08 00:53:11;;;;;;;1999.90;999.90;;;13.80;67.10;;;;;;5022857;28;20063;-72
2024/04/08 00:55:38;;;;;;;1999.90;999.90;;;13.90;66.70;;;;;;5019289;28;20077;-72
2024/04/08 00:58:04;;;;;;;1999.90;999.90;;;13.80;66.80;;;;;;5022565;28;20829;-72
2024/04/08 01:00:30;;;;;;;1999.90;999.90;;;13.80;66.90;;;;;;5022737;28;20108;-71
2024/04/08 01:03:03;;;;;;;1999.90;999.90;;;13.80;67.10;;;;;;5023047;28;20025;-71
2024/04/08 01:05:33;;;;;;;1999.90;999.90;;;13.80;67.10;;;;;;5022752;28;20555;-72
2024/04/08 01:07:59;;;;;;;1999.90;999.90;;;13.80;67.10;;;;;;5022194;28;20061;-72
2024/04/08 01:10:26;;;;;;;1999.90;999.90;;;13.70;67.30;;;;;;5021278;28;20029;-72
2024/04/08 01:12:52;;;;;;;1999.90;999.90;;;13.70;67.60;;;;;;5022449;28;20034;-71
2024/04/08 01:15:18;;;;;;;1999.90;999.90;;;13.60;67.90;;;;;;5023013;28;20041;-72
2024/04/08 01:17:49;;;;;;;;;;;13.70;67.60;;;;;;5022693;28;20087;-72
2024/04/08 01:20:14;;;;;;;1999.90;999.90;;;13.70;67.40;;;;;;5017600;28;19917;-72
2024/04/08 01:22:41;;;;;;;1999.90;999.90;;;13.80;67.10;;;;;;5021259;28;20480;-71
2024/04/08 01:25:06;;;;;;;1999.90;999.90;;;13.70;67.20;;;;;;5021937;28;20397;-72
2024/04/08 01:27:32;;;;;;;1999.90;999.90;;;13.60;67.40;;;;;;5022341;28;20533;-72
2024/04/08 01:29:58;;;;;;;1999.90;999.90;;;13.50;67.60;;;;;;5022113;28;20059;-72
2024/04/08 01:32:23;;;;;;;1999.90;999.90;;;13.50;68.00;;;;;;5021947;28;20556;-72
2024/04/08 01:34:49;;;;;;;1999.90;999.90;;;13.40;68.90;;;;;;5023848;28;20451;-72
2024/04/08 01:37:15;;;;;;;1999.90;999.90;;;13.40;69.00;;;;;;5021301;28;20060;-71
2024/04/08 01:39:41;;;;;;;1999.90;999.90;;;13.40;68.50;;;;;;5023559;28;20029;-71
2024/04/08 01:42:06;;;;;;;1999.90;999.90;;;13.40;68.50;;;;;;5022542;28;20060;-71
2024/04/08 01:44:32;;;;;;;1999.90;999.90;;;13.40;68.50;;;;;;5023032;28;20033;-71
2024/04/08 01:46:58;;;;;;;1999.90;999.90;;;13.30;68.80;;;;;;5022427;28;20844;-70
2024/04/08 01:49:26;;;;;;;1999.90;999.90;;;13.20;69.80;;;;;;5025444;28;20099;-72
2024/04/08 01:51:53;;;;;;;1999.90;999.90;;;13.10;69.80;;;;;;5021641;28;20032;-71
2024/04/08 01:54:20;;;;;;;1999.90;999.90;;;13.10;70.30;;;;;;5020928;28;20152;-72
2024/04/08 01:56:47;;;;;;;1999.90;999.90;;;13.20;69.90;;;;;;5013077;28;20060;-71
2024/04/08 01:59:12;;;;;;;;;;;13.20;68.90;;;;;;5018139;28;20029;-72
2024/04/08 02:01:38;;;;;;;1999.90;999.90;;;13.30;68.50;;;;;;5014987;28;20431;-71
2024/04/08 02:04:04;;;;;;;1999.90;999.90;;;13.30;67.80;;;;;;5028005;28;20033;-72
2024/04/08 02:06:29;;;;;;;1999.90;999.90;;;13.40;67.60;;;;;;5021402;28;20408;-72
2024/04/08 02:08:55;;;;;;;1999.90;999.90;;;13.40;67.60;;;;;;5025407;28;20026;-71
2024/04/08 02:11:21;;;;;;;1999.90;999.90;;;13.30;68.10;;;;;;5021367;28;20047;-71
2024/04/08 02:13:46;;;;;;;1999.90;999.90;;;13.10;68.60;;;;;;5019544;28;20037;-71
2024/04/08 02:16:14;;;;;;;1999.90;999.90;;;13.10;68.80;;;;;;5018994;28;20736;-70
2024/04/08 02:18:39;;;;;;;1999.90;999.90;;;13.10;68.50;;;;;;5024025;28;20017;-71
2024/04/08 02:21:10;;;;;;;1999.90;999.90;;;13.10;68.90;;;;;;5021699;28;20099;-70
2024/04/08 02:23:36;;;;;;;1999.90;999.90;;;13.10;68.00;;;;;;5021477;28;20959;-71
2024/04/08 02:26:01;;;;;;;1999.90;999.90;;;13.10;67.90;;;;;;5020634;28;20022;-71
2024/04/08 02:28:27;;;;;;;1999.90;999.90;;;13.10;67.70;;;;;;5020552;28;20029;-71
2024/04/08 02:30:53;;;;;;;1999.90;999.90;;;13.00;68.10;;;;;;5017472;28;20044;-71
2024/04/08 02:33:19;;;;;;;1999.90;999.90;;;13.10;67.90;;;;;;5026837;28;20509;-72
2024/04/08 02:35:44;;;;;;;1999.90;999.90;;;13.10;67.60;;;;;;5021322;28;20032;-72
2024/04/08 02:38:10;;;;;;;1999.90;999.90;;;13.20;67.30;;;;;;5022896;28;20038;-71
2024/04/08 02:40:36;;;;;;;1999.90;999.90;;;13.20;67.00;;;;;;5020629;28;20061;-71
2024/04/08 02:43:04;;;;;;;1999.90;999.90;;;13.30;66.40;;;;;;5053208;28;20409;-71
2024/04/08 02:45:29;;;;;;;1999.90;999.90;;;13.30;66.30;;;;;;5016561;28;20033;-70
2024/04/08 02:47:58;;;;;;;1999.90;999.90;;;13.20;66.30;;;;;;5028637;28;20500;-71
2024/04/08 02:50:24;;;;;;;1999.90;999.90;;;13.20;66.50;;;;;;5028256;28;20025;-72
2024/04/08 02:52:50;;;;;;;1999.90;999.90;;;13.10;67.10;;;;;;5024421;28;20034;-70
2024/04/08 02:55:16;;;;;;;1999.90;999.90;;;13.10;66.80;;;;;;5014755;28;20077;-71
2024/04/08 02:57:41;;;;;;;1999.90;999.90;;;13.20;66.20;;;;;;5023788;28;20688;-71
2024/04/08 03:00:07;;;;;;;1999.90;999.90;;;13.20;66.00;;;;;;5021290;28;20536;-70
2024/04/08 03:02:33;;;;;;;1999.90;999.90;;;13.40;65.50;;;;;;5021313;28;20033;-71
2024/04/08 03:04:59;;;;;;;1999.90;999.90;;;13.40;65.30;;;;;;5024195;28;20339;-71
2024/04/08 03:07:24;;;;;;;1999.90;999.90;;;13.40;65.20;;;;;;5024635;28;20497;-71
2024/04/08 03:09:51;;;;;;;1999.90;999.90;;;13.50;64.80;;;;;;5020650;28;20057;-72
2024/04/08 03:12:17;;;;;;;1999.90;999.90;;;13.50;64.30;;;;;;5025109;28;20034;-72
2024/04/08 03:14:43;;;;;;;1999.90;999.90;;;13.60;64.20;;;;;;5024604;28;20041;-71
2024/04/08 03:17:08;;;;;;;1999.90;999.90;;;13.60;63.80;;;;;;5027534;28;20030;-71
2024/04/08 03:19:34;;;;;;;1999.90;999.90;;;13.60;64.00;;;;;;5026654;28;20339;-72
2024/04/08 03:22:00;;;;;;;1999.90;999.90;;;13.40;64.50;;;;;;5022462;28;20025;-71
2024/04/08 03:24:28;;;;;;;1999.90;999.90;;;13.30;65.20;;;;;;5024600;28;20784;-70
2024/04/08 03:26:54;;;;;;;1999.90;999.90;;;13.30;65.20;;;;;;5023629;28;20038;-71
2024/04/08 03:29:20;;;;;;;1999.90;999.90;;;13.20;65.90;;;;;;5022774;28;20079;-71
2024/04/08 03:31:46;;;;;;;1999.90;999.90;;;13.00;66.30;;;;;;5024089;28;20029;-71
2024/04/08 03:34:12;;;;;;;1999.90;999.90;;;13.00;66.30;;;;;;5023854;28;20488;-71
2024/04/08 03:36:37;;;;;;;1999.90;999.90;;;13.00;66.20;;;;;;5024346;28;20042;-70
2024/04/08 03:39:04;;;;;;;1999.90;999.90;;;13.00;66.20;;;;;;5022441;28;20029;-71
2024/04/08 03:41:30;;;;;;;1999.90;999.90;;;13.10;65.60;;;;;;5021858;28;20022;-71
2024/04/08 03:43:56;;;;;;;1999.90;999.90;;;13.30;63.40;;;;;;5024559;28;20511;-71
2024/04/08 03:46:22;;;;;;;1999.90;999.90;;;13.40;63.30;;;;;;5025334;28;21004;-71
2024/04/08 03:48:47;;;;;;;1999.90;999.90;;;13.30;63.40;;;;;;5028712;28;20029;-72
2024/04/08 03:51:13;;;;;;;1999.90;999.90;;;13.50;62.30;;;;;;5025075;28;20029;-71
2024/04/08 03:53:39;;;;;;;1999.90;999.90;;;13.60;61.80;;;;;;5022583;28;20037;-72
2024/04/08 03:56:11;;;;;;;1999.90;999.90;;;13.50;62.30;;;;;;5021735;28;20924;-71
2024/04/08 03:58:41;;;;;;;1999.90;999.90;;;13.50;62.80;;;;;;5023014;28;20404;-71
2024/04/08 04:01:09;;;;;;;1999.90;999.90;;;13.40;63.30;;;;;;5023818;28;20021;-72
2024/04/08 04:03:36;;;;;;;1999.90;999.90;;;13.40;63.00;;;;;;5022525;28;20017;-71
2024/04/08 04:06:02;;;;;;;1999.90;999.90;;;13.50;62.50;;;;;;5023044;28;20404;-71
2024/04/08 04:08:28;;;;;;;1999.90;999.90;;;13.40;62.00;;;;;;5024285;28;20031;-72
2024/04/08 04:10:55;;;;;;;;;;;13.60;61.40;;;;;;5026792;28;20763;-73
2024/04/08 04:13:20;;;;;;;;;;;13.80;60.60;;;;;;5023365;28;20764;-73
2024/04/08 04:15:46;;;;;;;1999.90;999.90;;;13.90;59.80;;;;;;5022867;28;19917;-72
2024/04/08 04:18:12;;;;;;;1999.90;999.90;;;13.80;60.90;;;;;;5024202;28;20583;-71
2024/04/08 04:20:42;;;;;;;1999.90;999.90;;;14.00;59.80;;;;;;5024052;28;20025;-71
2024/04/08 04:23:11;;;;;;;1999.90;999.90;;;14.20;59.30;;;;;;5023329;28;20087;-71
2024/04/08 04:25:37;;;;;;;1999.90;999.90;;;14.40;58.50;;;;;;5022408;28;20153;-70
2024/04/08 04:28:04;;;;;;;1999.90;999.90;;;14.50;58.10;;;;;;5023012;28;20025;-70
2024/04/08 04:30:29;;;;;;;1999.90;999.90;;;14.50;58.10;;;;;;5023230;28;20535;-71
2024/04/08 04:33:00;;;;;;;1999.90;999.90;;;14.40;58.30;;;;;;5023631;28;20034;-71
2024/04/08 04:35:29;;;;;;;1999.90;999.90;;;14.50;58.30;;;;;;5022678;28;20072;-71
2024/04/08 04:37:55;;;;;;;1999.90;999.90;;;14.50;58.20;;;;;;5023691;28;20125;-70
2024/04/08 04:40:21;;;;;;;1999.90;999.90;;;14.50;59.40;;;;;;5023531;28;20234;-72
2024/04/08 04:42:47;;;;;;;1999.90;999.90;;;14.50;58.90;;;;;;5019993;28;20041;-70
2024/04/08 04:45:14;;;;;;;1999.90;999.90;;;14.40;60.60;;;;;;5020214;28;20485;-72
2024/04/08 04:47:39;;;;;;;1999.90;999.90;;;14.20;62.00;;;;;;5022063;28;20438;-72
2024/04/08 04:50:05;;;;;;;1999.90;999.90;;;14.00;64.50;;;;;;5023736;28;20032;-71
2024/04/08 04:52:33;;;;;;;1999.90;999.90;;;13.90;65.20;;;;;;5025180;28;20026;-73
2024/04/08 04:54:58;;;;;;;1999.90;999.90;;;13.80;65.70;;;;;;5022543;28;20029;-72
2024/04/08 04:57:24;;;;;;;1999.90;999.90;;;13.70;66.20;;;;;;5026283;28;20106;-72
2024/04/08 04:59:49;;;;;;;1999.90;999.90;;;13.80;66.20;;;;;;5031550;28;20048;-72
2024/04/08 05:02:15;;;;;;;1999.90;999.90;;;13.80;65.50;;;;;;5023255;28;20108;-71
2024/04/08 05:04:43;;;;;;;1999.90;999.90;;;13.90;65.50;;;;;;5023981;28;20033;-74
2024/04/08 05:07:09;;;;;;;1999.90;999.90;;;13.90;65.00;;;;;;5022798;28;20056;-74
2024/04/08 05:09:34;;;;;;;1999.90;999.90;;;13.90;65.60;;;;;;5023402;28;20489;-73
2024/04/08 05:12:00;;;;;;;1999.90;999.90;;;13.90;64.50;;;;;;5023313;28;20032;-72
2024/04/08 05:14:26;;;;;;;1999.90;999.90;;;14.00;64.10;;;;;;5022483;28;20040;-72
2024/04/08 05:16:51;;;;;;;1999.90;999.90;;;14.10;62.80;;;;;;5023435;28;20378;-75
2024/04/08 05:19:17;;;;;;;1999.90;999.90;;;14.10;63.30;;;;;;5022598;28;20100;-73
2024/04/08 05:21:43;;;;;;;1999.90;999.90;;;14.00;63.20;;;;;;5020791;28;20053;-72
2024/04/08 05:24:10;;;;;;;1999.90;999.90;;;14.10;62.90;;;;;;5019453;28;20819;-73
2024/04/08 05:26:36;;;;;;;1999.90;999.90;;;14.30;61.60;;;;;;5022032;28;20566;-72
2024/04/08 05:29:02;;;;;;;1999.90;999.90;;;14.60;61.50;;;;;;5018644;28;20032;-72
2024/04/08 05:31:28;;;;;;;1999.90;999.90;;;14.10;66.70;;;;;;5022524;28;20413;-74
2024/04/08 05:33:53;;;;;;;1999.90;999.90;;;13.80;68.90;;;;;;5018525;28;20045;-72
2024/04/08 05:36:19;;;;;;;1999.90;999.90;;;13.70;70.50;;;;;;5021306;28;20140;-72
2024/04/08 05:38:45;;;;;;;1999.90;999.90;;;13.70;69.00;;;;;;5020519;28;20036;-74
2024/04/08 05:41:10;;;;;;;1999.90;999.90;;;13.90;67.30;;;;;;5022195;28;20121;-72
2024/04/08 05:43:36;;;;;;;1999.90;999.90;;;14.00;67.10;;;;;;5026020;28;20104;-72
2024/04/08 05:46:02;;;;;;;1999.90;999.90;;;14.00;67.20;;;;;;5022279;28;20463;-73
2024/04/08 05:48:28;;;;;;;1999.90;999.90;;;14.10;65.80;;;;;;5022344;28;20029;-73
2024/04/08 05:50:53;;;;;;;1999.90;999.90;;;14.30;64.70;;;;;;5025307;28;20041;-73
2024/04/08 05:53:19;;;;;;;1999.90;999.90;;;14.30;65.40;;;;;;5027108;28;20104;-72
2024/04/08 05:55:45;;;;;;;1999.90;999.90;;;14.40;64.20;;;;;;5022050;28;20085;-73
2024/04/08 05:58:11;;;;;;;1999.90;999.90;;;14.30;64.70;;;;;;5026776;28;20490;-74
2024/04/08 06:00:37;;;;;;;1999.90;999.90;;;14.40;63.80;;;;;;5030411;28;20031;-73
2024/04/08 06:03:03;;;;;;;1999.90;999.90;;;14.40;64.50;;;;;;5023458;28;20065;-73
2024/04/08 06:05:29;;;;;;;1999.90;999.90;;;14.40;64.80;;;;;;5021622;28;20036;-72
2024/04/08 06:07:55;;;;;;;1999.90;999.90;;;13.80;71.00;;;;;;5015586;28;20028;-73
2024/04/08 06:10:23;;;;;;;1999.90;999.90;;;13.60;70.20;;;;;;5022148;28;20034;-72
2024/04/08 06:12:49;;;;;;;1999.90;999.90;;;13.60;68.90;;;;;;5022576;28;20022;-73
2024/04/08 06:15:16;;;;;;;1999.90;999.90;;;13.90;67.30;;;;;;5022228;28;20047;-73
2024/04/08 06:17:42;;;;;;;;;;;14.00;66.70;;;;;;5025778;28;20592;-73
2024/04/08 06:20:08;;;;;;;1999.90;999.90;;;14.00;66.50;;;;;;5018989;28;19979;-72
2024/04/08 06:22:37;;;;;;;1999.90;999.90;;;14.10;65.70;;;;;;5016674;28;20053;-73
2024/04/08 06:25:03;;;;;;;1999.90;999.90;;;14.20;65.10;;;;;;5022558;28;20066;-72
2024/04/08 06:27:29;;;;;;;1999.90;999.90;;;14.30;64.60;;;;;;5020946;28;20051;-71
2024/04/08 06:29:55;;;;;;;1999.90;999.90;;;14.40;63.40;;;;;;5021989;28;20583;-72
2024/04/08 06:32:20;;;;;;;1999.90;999.90;;;14.60;62.30;;;;;;5017139;28;20204;-72
2024/04/08 06:34:46;;;;;;;1999.90;999.90;;;14.60;62.40;;;;;;5019345;28;20080;-72
2024/04/08 06:37:12;;;;;;;1999.90;999.90;;;14.60;63.30;;;;;;5022111;28;20040;-74
2024/04/08 06:39:37;;;;;;;1999.90;999.90;;;14.60;63.50;;;;;;5024639;28;20481;-72
2024/04/08 06:42:03;;;;;;;1999.90;999.90;;;14.70;63.00;;;;;;5025873;28;20075;-72
2024/04/08 06:44:29;;;;;;;1999.90;999.90;;;14.70;63.00;;;;;;5025632;28;20472;-74
2024/04/08 06:46:55;;;;;;;1999.90;999.90;;;14.80;63.20;;;;;;5024718;28;20080;-72
2024/04/08 06:49:20;;;;;;;1999.90;999.90;;;14.50;67.90;;;;;;5025904;28;20128;-71
2024/04/08 06:51:46;;;;;;;1999.90;999.90;;;14.30;67.70;;;;;;5025603;28;20034;-72
2024/04/08 06:54:12;;;;;;;1999.90;999.90;;;14.20;69.90;;;;;;5024988;28;20515;-72
2024/04/08 06:56:38;;;;;;;1999.90;999.90;;;14.10;70.70;;;;;;5019332;28;20073;-71
2024/04/08 06:59:04;;;;;;;1999.90;999.90;;;13.90;71.40;;;;;;5025325;28;20771;-73
2024/04/08 07:01:30;;;;;;;1999.90;999.90;;;14.00;71.10;;;;;;5023925;28;20511;-72
2024/04/08 07:03:56;;;;;;;1999.90;999.90;;;14.30;71.00;;;;;;5025222;28;20033;-72
2024/04/08 07:06:22;;;;;;;1999.90;999.90;;;15.10;68.90;;;;;;5022797;28;20043;-75
2024/04/08 07:08:48;;;;;;;1999.90;999.90;;;16.00;66.40;;;;;;5023701;28;20516;-73
2024/04/08 07:11:14;;;;;;;1999.90;999.90;;;17.20;63.30;;;;;;5024323;28;20030;-75
2024/04/08 07:13:40;;;;;;;1999.90;999.90;;;16.70;61.00;;;;;;5024256;28;20049;-73
2024/04/08 07:16:05;;;;;;;1999.90;999.90;;;15.90;61.80;;;;;;5024635;28;20060;-74
2024/04/08 07:18:31;;;;;;;1999.90;999.90;;;16.40;61.60;;;;;;5030198;28;20029;-73
2024/04/08 07:20:57;;;;;;;1999.90;999.90;;;17.50;57.90;;;;;;5022276;28;20028;-72
2024/04/08 07:23:22;;;;;;;1999.90;999.90;;;18.00;56.70;;;;;;5025281;28;20033;-74
2024/04/08 07:25:50;;;;;;;1999.90;999.90;;;17.40;57.60;;;;;;5025062;28;20090;-73
2024/04/08 07:28:15;;;;;;;1999.90;999.90;;;16.90;59.00;;;;;;5025252;28;20029;-73
2024/04/08 07:30:41;;;;;;;1999.90;999.90;;;17.10;58.70;;;;;;5025050;28;20470;-76
2024/04/08 07:33:07;;;;;;;1999.90;999.90;;;16.90;59.80;;;;;;5025056;28;20030;-74
2024/04/08 07:35:33;;;;;;;1999.90;999.90;;;16.40;62.10;;;;;;5025244;28;20092;-74
2024/04/08 07:37:59;;;;;;;1999.90;999.90;;;16.20;63.70;;;;;;5024902;28;20025;-73
2024/04/08 07:40:24;;;;;;;1999.90;999.90;;;16.10;63.90;;;;;;5025370;28;20021;-73
2024/04/08 07:42:50;;;;;;;1999.90;999.90;;;16.30;63.50;;;;;;5034715;28;20034;-73
2024/04/08 07:45:16;;;;;;;1999.90;999.90;;;16.40;63.90;;;;;;5025427;28;20037;-74
2024/04/08 07:47:44;;;;;;;1999.90;999.90;;;16.50;63.10;;;;;;5024210;28;20025;-73
2024/04/08 07:50:10;;;;;;;1999.90;999.90;;;16.60;61.80;;;;;;5021676;28;20180;-73
2024/04/08 07:52:37;;;;;;;1999.90;999.90;;;16.50;61.80;;;;;;5023387;28;20057;-73
2024/04/08 07:55:04;;;;;;;1999.90;999.90;;;16.40;61.40;;;;;;5023834;28;20114;-75
2024/04/08 07:57:30;;;;;;;1999.90;999.90;;;16.50;65.10;;;;;;5025428;28;20527;-73
2024/04/08 07:59:55;;;;;;;1999.90;999.90;;;16.70;65.40;;;;;;5031538;28;20026;-73
2024/04/08 08:02:23;;;;;;;1999.90;999.90;;;16.70;63.50;;;;;;5024498;28;20025;-74
2024/04/08 08:04:49;;;;;;;1999.90;999.90;;;16.50;64.50;;;;;;5025417;28;20120;-74
2024/04/08 08:07:14;;;;;;;1999.90;999.90;;;16.40;65.00;;;;;;5028828;28;20641;-73
2024/04/08 08:09:40;;;;;;;1999.90;999.90;;;18.60;61.80;;;;;;5024135;28;20690;-73
2024/04/08 08:12:06;;;;;;;1999.90;999.90;;;20.80;55.50;;;;;;5027065;28;20032;-73
2024/04/08 08:14:32;;;;;;;1999.90;999.90;;;20.40;54.10;;;;;;5025916;28;20042;-74
2024/04/08 08:16:58;;;;;;;1999.90;999.90;;;20.20;54.40;;;;;;5023479;28;20088;-73
2024/04/08 08:19:23;;;;;;;1999.90;999.90;;;20.30;54.50;;;;;;5022636;28;20563;-75
2024/04/08 08:21:49;;;;;;;1999.90;999.90;;;20.00;52.60;;;;;;5015850;28;20854;-76
2024/04/08 08:24:15;;;;;;;1999.90;999.90;;;18.70;56.40;;;;;;5023286;28;20044;-76
2024/04/08 08:26:40;;;;;;;1999.90;999.90;;;18.00;58.80;;;;;;5022486;28;20029;-74
2024/04/08 08:29:06;;;;;;;1999.90;999.90;;;18.60;60.20;;;;;;5019138;28;20339;-75
2024/04/08 08:31:32;;;;;;;1999.90;999.90;;;19.00;60.10;;;;;;5023578;28;20077;-77
2024/04/08 08:33:57;;;;;;;1999.90;999.90;;;20.00;59.20;;;;;;5023050;28;20493;-77
2024/04/08 08:36:23;;;;;;;1999.90;999.90;;;21.40;56.60;;;;;;5023259;28;20123;-75
2024/04/08 08:38:49;;;;;;;1999.90;999.90;;;24.30;51.30;;;;;;5023382;28;20104;-76
2024/04/08 08:41:16;;;;;;;1999.90;999.90;;;25.30;48.20;;;;;;5022319;28;20045;-79
2024/04/08 08:43:43;;;;;;;1999.90;999.90;;;24.80;44.60;;;;;;5023020;28;20061;-78
2024/04/08 08:46:10;;;;;;;1999.90;999.90;;;24.10;43.50;;;;;;5025873;28;20832;-79
2024/04/08 08:48:39;;;;;;;1999.90;999.90;;;23.80;44.30;;;;;;5019338;28;20083;-75
2024/04/08 08:51:08;;;;;;;1999.90;999.90;;;24.70;40.20;;;;;;5022702;28;20034;-76
2024/04/08 08:53:34;;;;;;;1999.90;999.90;;;23.90;41.70;;;;;;5022584;28;20021;-78
2024/04/08 08:56:02;;;;;;;1999.90;999.90;;;22.10;45.50;;;;;;5021460;28;20069;-75
2024/04/08 08:58:28;;;;;;;1999.90;999.90;;;23.50;43.20;;;;;;5023151;28;20029;-77
2024/04/08 09:00:54;;;;;;;;;;;24.70;41.10;;;;;;5023360;28;20030;-80
2024/04/08 09:03:22;;;;;;;1999.90;999.90;;;24.60;41.30;;;;;;5022905;28;19909;-77
2024/04/08 09:07:21;;;;;;;1999.90;999.90;;;24.90;38.60;;;;;;5527963;25;20446;-77
2024/04/08 09:09:57;;;;;;;1999.90;999.90;;;24.60;39.60;;;;;;5523912;25;20001;-75
2024/04/08 09:12:24;;;;;;;1999.90;999.90;;;25.90;38.90;;;;;;5530004;25;20749;-75
2024/04/08 09:14:51;;;;;;;1999.90;999.90;;;25.80;37.30;;;;;;5529320;25;20440;-75
2024/04/08 09:17:18;;;;;;;1999.90;999.90;;;26.40;37.70;;;;;;5524153;25;19997;-75
2024/04/08 09:19:43;;;;;;;1999.90;999.90;;;26.50;35.40;;;;;;5526150;25;19997;-76
2024/04/08 09:22:09;;;;;;;;;;;25.60;38.60;;;;;;5495538;25;20001;-78
2024/04/08 09:24:35;;;;;;;1999.90;999.90;;;24.10;39.90;;;;;;5524994;25;19930;-75
2024/04/08 09:27:01;;;;;;;1999.90;999.90;;;21.90;42.60;;;;;;5523396;25;20459;-76
2024/04/08 09:29:27;;;;;;;1999.90;999.90;;;21.10;45.10;;;;;;5512898;25;20078;-76
2024/04/08 09:31:53;;;;;;;1999.90;999.90;;;21.00;45.50;;;;;;5517015;25;20822;-75
2024/04/08 09:34:19;;;;;;;1999.90;999.90;;;21.00;45.80;;;;;;5518705;25;19989;-77
2024/04/08 09:36:46;;;;;;;1999.90;999.90;;;20.90;46.80;;;;;;5532781;25;20009;-75
2024/04/08 09:39:12;;;;;;;1999.90;999.90;;;22.50;44.30;;;;;;5519336;25;20816;-77
2024/04/08 09:41:39;;;;;;;1999.90;999.90;;;22.00;44.70;;;;;;5504365;25;19993;-76
2024/04/08 09:44:12;;;;;;;1999.90;999.90;;;22.40;44.80;;;;;;5495365;25;20016;-76
2024/04/08 09:46:40;;;;;;;1999.90;999.90;;;22.00;45.20;;;;;;5526027;25;20092;-75
2024/04/08 09:49:10;;;;;;;1999.90;999.90;;;21.80;45.60;;;;;;5513807;25;20354;-76
2024/04/08 09:51:39;;;;;;;1999.90;999.90;;;21.50;45.00;;;;;;5534710;25;20068;-76
2024/04/08 09:54:05;;;;;;;1999.90;999.90;;;21.20;46.50;;;;;;5526514;25;20445;-76
2024/04/08 09:56:35;;;;;;;;;;;21.30;45.80;;;;;;5527359;25;20001;-75
2024/04/08 09:59:05;;;;;;;1999.90;999.90;;;22.20;45.40;;;;;;5533799;25;19967;-76
2024/04/08 10:01:30;;;;;;;1999.90;999.90;;;22.70;42.40;;;;;;5518507;25;20025;-76
2024/04/08 10:04:00;;;;;;;1999.90;999.90;;;23.50;41.90;;;;;;5528010;25;20085;-75
2024/04/08 10:06:26;;;;;;;1999.90;999.90;;;25.00;40.70;;;;;;5524118;25;20001;-76
2024/04/08 10:08:52;;;;;;;;;;;24.30;39.90;;;;;;5527802;25;20052;-76
2024/04/08 10:11:18;;;;;;;1999.90;999.90;;;22.90;42.10;;;;;;5487513;25;20271;-76
2024/04/08 10:13:49;;;;;;;1999.90;999.90;;;23.20;42.90;;;;;;5513466;25;19997;-80
2024/04/08 10:16:15;;;;;;;1999.90;999.90;;;24.00;41.70;;;;;;5524275;25;19997;-78
2024/04/08 10:18:54;;;;;;;1999.90;999.90;;;24.30;40.80;;;;;;5500167;25;20012;-77
2024/04/08 10:21:21;;;;;;;1999.90;999.90;;;22.90;40.70;;;;;;5514310;25;20427;-77
2024/04/08 10:23:47;;;;;;;1999.90;999.90;;;23.00;41.70;;;;;;5504946;25;19998;-76
2024/04/08 10:26:14;;;;;;;1999.90;999.90;;;22.30;42.30;;;;;;5512118;25;20009;-76
2024/04/08 10:28:41;;;;;;;1999.90;999.90;;;22.60;43.20;;;;;;5504190;25;20450;-77
2024/04/08 10:31:07;;;;;;;1999.90;999.90;;;23.10;42.20;;;;;;5481485;26;20004;-76
2024/04/08 10:33:34;;;;;;;1999.90;999.90;;;22.90;42.20;;;;;;5512335;25;19993;-76
2024/04/08 10:36:00;;;;;;;1999.90;999.90;;;22.20;42.10;;;;;;5520024;25;20061;-77
2024/04/08 10:38:27;;;;;;;1999.90;999.90;;;21.70;45.70;;;;;;5511311;25;20452;-77
2024/04/08 10:40:54;;;;;;;1999.90;999.90;;;22.50;44.60;;;;;;5510732;25;20062;-76
2024/04/08 10:43:20;;;;;;;1999.90;999.90;;;22.40;43.60;;;;;;5499677;25;20368;-76
2024/04/08 10:45:47;;;;;;;1999.90;999.90;;;22.50;44.60;;;;;;5510996;25;20966;-76
2024/04/08 10:48:12;;;;;;;;;;;22.20;43.10;;;;;;5501816;25;20021;-76
2024/04/08 10:50:38;;;;;;;1999.90;999.90;;;22.80;44.20;;;;;;5507232;25;20268;-77
2024/04/08 10:53:04;;;;;;;;;;;22.20;43.10;;;;;;5510265;25;20009;-78
2024/04/08 10:55:30;;;;;;;1999.90;999.90;;;21.70;43.60;;;;;;5507954;25;19923;-77
2024/04/08 10:57:56;;;;;;;1999.90;999.90;;;21.40;45.40;;;;;;5511443;25;19993;-77
2024/04/08 11:00:21;;;;;;;1999.90;999.90;;;21.50;46.30;;;;;;5503901;25;21137;-78
2024/04/08 11:02:47;;;;;;;1999.90;999.90;;;21.20;46.60;;;;;;5509200;25;20000;-77
2024/04/08 11:05:13;;;;;;;1999.90;999.90;;;21.30;46.60;;;;;;5516741;25;20894;-76
2024/04/08 11:07:39;;;;;;;1999.90;999.90;;;21.00;47.20;;;;;;5505316;25;20008;-77
2024/04/08 11:10:06;;;;;;;;;;;21.80;46.60;;;;;;5512601;25;20008;-77
2024/04/08 11:12:32;;;;;;;1999.90;999.90;;;22.20;48.40;;;;;;5511556;25;19923;-74
2024/04/08 11:15:02;;;;;;;1999.90;999.90;;;22.50;47.70;;;;;;5511154;25;20000;-75
2024/04/08 11:17:28;;;;;;;1999.90;999.90;;;22.30;47.50;;;;;;5507153;25;20032;-77
2024/04/08 11:20:01;;;;;;;1999.90;999.90;;;22.60;45.80;;;;;;5507527;25;20993;-76
2024/04/08 11:22:27;;;;;;;1999.90;999.90;;;22.50;45.90;;;;;;5512907;25;19997;-77
2024/04/08 11:24:59;;;;;;;1999.90;999.90;;;22.70;45.10;;;;;;5511238;25;20001;-76
2024/04/08 11:27:25;;;;;;;1999.90;999.90;;;23.50;47.50;;;;;;5505325;25;20026;-78
2024/04/08 11:29:51;;;;;;;1999.90;999.90;;;23.30;48.20;;;;;;5513877;25;20005;-76
2024/04/08 11:32:18;;;;;;;1999.90;999.90;;;23.20;47.50;;;;;;5499564;25;20008;-76
2024/04/08 11:34:44;;;;;;;1999.90;999.90;;;23.30;47.10;;;;;;5504148;25;20577;-79
2024/04/08 11:37:11;;;;;;;1999.90;999.90;;;23.30;48.80;;;;;;5511095;25;19998;-77
2024/04/08 11:39:42;;;;;;;1999.90;999.90;;;22.90;47.90;;;;;;5475932;25;20047;-76
2024/04/08 11:42:08;;;;;;;1999.90;999.90;;;23.20;47.50;;;;;;5504906;25;20033;-76
2024/04/08 11:44:35;;;;;;;;;;;22.90;48.30;;;;;;5504071;25;20037;-76
2024/04/08 11:47:02;;;;;;;1999.90;999.90;;;22.40;47.60;;;;;;5500527;25;19924;-77
2024/04/08 11:49:30;;;;;;;1999.90;999.90;;;22.80;49.50;;;;;;5504803;25;20066;-76
2024/04/08 11:51:56;;;;;;;1999.90;999.90;;;22.50;47.60;;;;;;5504442;25;20732;-76
2024/04/08 11:54:22;;;;;;;1999.90;999.90;;;22.70;48.00;;;;;;5506163;25;20001;-78
2024/04/08 11:56:48;;;;;;;1999.90;999.90;;;22.60;48.40;;;;;;5506478;25;20512;-76
2024/04/08 11:59:13;;;;;;;1999.90;999.90;;;22.90;50.20;;;;;;5512710;25;19997;-77
2024/04/08 12:01:42;;;;;;;1999.90;999.90;;;23.30;48.20;;;;;;5502602;25;20329;-76